Time;durP1;ratioP1;P1;durP2;ratioP2;P2;SDS_P1;SDS_P2;PMS_P1;PMS_P2;Temp;Humidity;BMP_temperature;BMP_pressure;BME280_temperature;BME280_humidity;BME280_pressure;Samples;Min_cycle;Max_cycle;Signal;HPM_P1;HPM_P2
2021/07/04 00:00:46;;;;;;;26.77;7.18;;;17.00;99.90;;;;;;5018994;28;20049;-87
2021/07/04 00:03:13;;;;;;;27.70;7.30;;;17.00;99.90;;;;;;5021024;28;20057;-88
2021/07/04 00:05:46;;;;;;;37.65;7.15;;;17.00;99.90;;;;;;5021652;28;20041;-88
2021/07/04 00:08:17;;;;;;;29.52;6.70;;;17.00;99.90;;;;;;5028941;28;20122;-88
2021/07/04 00:10:54;;;;;;;20.52;6.97;;;17.00;99.90;;;;;;5020091;28;20415;-88
2021/07/04 00:13:22;;;;;;;25.13;6.35;;;17.00;99.90;;;;;;5020213;28;20053;-88
2021/07/04 00:15:50;;;;;;;23.42;6.72;;;17.00;99.90;;;;;;5023247;28;20151;-88
2021/07/04 00:18:21;;;;;;;21.10;7.03;;;17.00;99.90;;;;;;5017953;28;20045;-88
2021/07/04 00:20:50;;;;;;;22.90;6.63;;;17.00;99.90;;;;;;5023676;28;20471;-87
2021/07/04 00:23:17;;;;;;;27.50;7.82;;;17.00;99.90;;;;;;5020186;28;20131;-88
2021/07/04 00:25:47;;;;;;;24.08;7.40;;;17.00;99.90;;;;;;5020458;28;20041;-88
2021/07/04 00:28:15;;;;;;;22.20;6.30;;;17.00;99.90;;;;;;5020391;28;20141;-88
2021/07/04 00:30:44;;;;;;;26.98;6.65;;;17.00;99.90;;;;;;5012579;28;20045;-88
2021/07/04 00:33:11;;;;;;;22.27;6.28;;;17.00;99.90;;;;;;5019717;28;20057;-88
2021/07/04 00:35:39;;;;;;;19.58;6.25;;;17.00;99.90;;;;;;5018158;28;20057;-88
2021/07/04 00:38:08;;;;;;;26.98;6.43;;;17.00;99.90;;;;;;5015725;28;20037;-88
2021/07/04 00:40:36;;;;;;;24.55;6.57;;;17.00;99.90;;;;;;5028621;28;20052;-88
2021/07/04 00:43:04;;;;;;;19.60;6.53;;;17.00;99.90;;;;;;5017126;28;20045;-88
2021/07/04 00:45:32;;;;;;;23.27;6.43;;;17.00;99.90;;;;;;5019697;28;20529;-88
2021/07/04 00:47:59;;;;;;;23.65;6.57;;;17.00;99.90;;;;;;5019770;28;20299;-88
2021/07/04 00:50:30;;;;;;;25.25;7.32;;;17.00;99.90;;;;;;5008816;28;20046;-88
2021/07/04 00:52:58;;;;;;;22.20;6.93;;;17.00;99.90;;;;;;5017775;28;20052;-88
2021/07/04 00:55:26;;;;;;;;;;;17.10;99.90;;;;;;5020253;28;20967;-88
2021/07/04 00:57:54;;;;;;;18.25;6.50;;;17.00;99.90;;;;;;5020691;28;20032;-88
2021/07/04 01:00:28;;;;;;;21.20;6.25;;;17.10;99.90;;;;;;5019487;28;20048;-88
2021/07/04 01:02:56;;;;;;;20.65;6.88;;;17.10;99.90;;;;;;5018057;28;20067;-88
2021/07/04 01:05:27;;;;;;;24.60;6.85;;;17.00;99.90;;;;;;5012666;28;20049;-88
2021/07/04 01:07:54;;;;;;;24.08;7.38;;;17.10;99.90;;;;;;5017410;28;20046;-87
2021/07/04 01:10:28;;;;;;;18.10;7.25;;;17.10;99.90;;;;;;5018735;28;20049;-88
2021/07/04 01:12:57;;;;;;;17.92;6.53;;;17.10;99.90;;;;;;5020389;28;20203;-87
2021/07/04 01:15:27;;;;;;;23.27;7.63;;;17.10;99.90;;;;;;5021475;28;24892;-88
2021/07/04 01:18:06;;;;;;;24.75;7.32;;;17.10;99.90;;;;;;5018196;28;20049;-87
2021/07/04 01:20:35;;;;;;;27.38;8.23;;;17.10;99.90;;;;;;5006878;28;20041;-87
2021/07/04 01:23:02;;;;;;;;;;;17.10;99.90;;;;;;5016512;28;20080;-88
2021/07/04 01:25:33;;;;;;;18.73;6.88;;;17.10;99.90;;;;;;5007735;28;19921;-88
2021/07/04 01:28:01;;;;;;;21.77;7.95;;;17.10;99.90;;;;;;5021225;28;20050;-88
2021/07/04 01:30:29;;;;;;;23.55;7.45;;;17.00;99.90;;;;;;5016317;28;20379;-88
2021/07/04 01:32:57;;;;;;;23.20;8.13;;;17.00;99.90;;;;;;5018994;28;20045;-88
2021/07/04 01:35:26;;;;;;;22.10;7.63;;;17.00;99.90;;;;;;5015770;28;20080;-88
2021/07/04 01:37:54;;;;;;;24.58;7.82;;;17.00;99.90;;;;;;5014901;28;20617;-88
2021/07/04 01:40:24;;;;;;;23.90;7.70;;;17.00;99.90;;;;;;5015328;28;20045;-88
2021/07/04 01:42:52;;;;;;;20.17;6.70;;;17.00;99.90;;;;;;5020939;28;20468;-88
2021/07/04 01:45:21;;;;;;;29.42;7.68;;;17.00;99.90;;;;;;5017973;28;20107;-87
2021/07/04 01:47:49;;;;;;;20.80;7.00;;;17.00;99.90;;;;;;5017774;28;20042;-87
2021/07/04 01:50:19;;;;;;;18.45;7.15;;;16.90;99.90;;;;;;5029320;28;20490;-88
2021/07/04 01:52:47;;;;;;;20.52;6.53;;;16.90;99.90;;;;;;5011573;28;20049;-87
2021/07/04 01:55:16;;;;;;;28.70;7.85;;;16.90;99.90;;;;;;5014454;28;20045;-88
2021/07/04 01:57:44;;;;;;;19.38;7.40;;;16.90;99.90;;;;;;5020732;28;20479;-88
2021/07/04 02:00:16;;;;;;;26.73;7.80;;;16.90;99.90;;;;;;5032290;28;20037;-88
2021/07/04 02:02:45;;;;;;;26.85;7.85;;;16.90;99.90;;;;;;5013378;28;20070;-87
2021/07/04 02:05:13;;;;;;;29.83;8.32;;;16.90;99.90;;;;;;5012330;28;20041;-88
2021/07/04 02:07:41;;;;;;;25.30;7.80;;;16.90;99.90;;;;;;5016318;28;20061;-88
2021/07/04 02:10:13;;;;;;;22.45;7.20;;;16.90;99.90;;;;;;5020282;28;20049;-88
2021/07/04 02:12:41;;;;;;;24.10;6.70;;;16.80;99.90;;;;;;5012646;28;20052;-88
2021/07/04 02:15:14;;;;;;;27.93;7.60;;;16.80;99.90;;;;;;5013047;28;20042;-87
2021/07/04 02:17:42;;;;;;;26.48;7.38;;;16.80;99.90;;;;;;5012118;28;20042;-87
2021/07/04 02:20:33;;;;;;;20.23;7.40;;;16.80;99.90;;;;;;5009897;28;20041;-88
2021/07/04 02:23:03;;;;;;;21.45;7.32;;;16.90;99.90;;;;;;5012788;28;20120;-88
2021/07/04 02:25:31;;;;;;;32.10;6.97;;;16.80;99.90;;;;;;5013393;28;20115;-88
2021/07/04 02:27:59;;;;;;;25.83;7.55;;;16.80;99.90;;;;;;5013068;28;20049;-88
2021/07/04 02:30:27;;;;;;;24.95;7.32;;;16.80;99.90;;;;;;5015094;28;20048;-88
2021/07/04 02:32:55;;;;;;;26.65;7.68;;;16.80;99.90;;;;;;5013905;28;20053;-88
2021/07/04 02:35:23;;;;;;;29.63;8.17;;;16.80;99.90;;;;;;5010764;28;20049;-88
2021/07/04 02:37:50;;;;;;;34.63;8.27;;;16.80;99.90;;;;;;5017974;28;20079;-88
2021/07/04 02:40:18;;;;;;;32.38;7.32;;;16.80;99.90;;;;;;5013546;28;20045;-88
2021/07/04 02:42:45;;;;;;;18.05;6.63;;;16.80;99.90;;;;;;5011422;28;20479;-88
2021/07/04 02:45:12;;;;;;;29.65;7.82;;;16.80;99.90;;;;;;5009273;28;20076;-88
2021/07/04 02:47:39;;;;;;;25.10;7.22;;;16.80;99.90;;;;;;5020983;28;20467;-88
2021/07/04 02:50:08;;;;;;;25.33;7.10;;;16.80;99.90;;;;;;5012135;28;20054;-88
2021/07/04 02:52:35;;;;;;;20.98;6.85;;;16.80;99.90;;;;;;4994482;28;20080;-88
2021/07/04 02:55:06;;;;;;;22.92;7.10;;;16.80;99.90;;;;;;5023034;28;20071;-88
2021/07/04 02:57:33;;;;;;;23.50;7.50;;;16.80;99.90;;;;;;5009028;28;20075;-88
2021/07/04 03:00:01;;;;;;;29.63;8.05;;;16.80;99.90;;;;;;5016314;28;20045;-88
2021/07/04 03:02:28;;;;;;;21.38;6.80;;;16.80;99.90;;;;;;5022965;28;20041;-88
2021/07/04 03:04:56;;;;;;;28.40;6.90;;;16.80;99.90;;;;;;5014214;28;20495;-88
2021/07/04 03:07:23;;;;;;;21.75;7.07;;;16.80;99.90;;;;;;5014093;28;20046;-88
2021/07/04 03:09:51;;;;;;;24.42;6.88;;;16.80;99.90;;;;;;5030826;28;20076;-87
2021/07/04 03:12:18;;;;;;;27.07;7.27;;;16.80;99.90;;;;;;5016994;28;20140;-88
2021/07/04 03:14:46;;;;;;;23.23;6.75;;;16.80;99.90;;;;;;5016682;28;20053;-87
2021/07/04 03:17:14;;;;;;;18.95;6.65;;;16.80;99.90;;;;;;5013589;28;20068;-87
2021/07/04 03:19:41;;;;;;;24.48;6.63;;;16.80;99.90;;;;;;5011788;28;20124;-88
2021/07/04 03:22:08;;;;;;;16.30;5.88;;;16.80;99.90;;;;;;5015986;28;20049;-88
2021/07/04 03:24:39;;;;;;;19.23;5.53;;;16.80;99.90;;;;;;5012803;28;20116;-88
2021/07/04 03:27:08;;;;;;;24.58;6.80;;;16.80;99.90;;;;;;5013103;28;20479;-88
2021/07/04 03:29:36;;;;;;;19.23;5.90;;;16.80;99.90;;;;;;5013459;28;20073;-88
2021/07/04 03:32:05;;;;;;;16.60;5.93;;;16.80;99.90;;;;;;5010173;28;20041;-88
2021/07/04 03:34:32;;;;;;;18.33;5.90;;;16.80;99.90;;;;;;5011565;28;20465;-88
2021/07/04 03:37:00;;;;;;;17.55;5.70;;;16.80;99.90;;;;;;5021783;28;20041;-88
2021/07/04 03:39:27;;;;;;;22.42;6.43;;;16.80;99.90;;;;;;5015538;28;20048;-88
2021/07/04 03:41:54;;;;;;;14.30;5.47;;;16.80;99.90;;;;;;5016276;28;20042;-88
2021/07/04 03:44:22;;;;;;;21.30;6.18;;;16.80;99.90;;;;;;5015165;28;20045;-88
2021/07/04 03:46:49;;;;;;;14.00;5.57;;;16.80;99.90;;;;;;5029753;28;20100;-88
2021/07/04 03:49:17;;;;;;;14.93;5.38;;;16.80;99.90;;;;;;5001300;28;20136;-88
2021/07/04 03:51:45;;;;;;;22.10;6.47;;;16.90;99.90;;;;;;5016833;28;20041;-88
2021/07/04 03:54:13;;;;;;;15.60;5.65;;;16.90;99.90;;;;;;5011961;28;20187;-88
2021/07/04 03:56:40;;;;;;;20.70;6.30;;;16.80;99.90;;;;;;5016616;28;20472;-88
2021/07/04 03:59:11;;;;;;;20.15;5.80;;;16.90;99.90;;;;;;5008941;28;20483;-88
2021/07/04 04:01:38;;;;;;;22.30;5.80;;;16.80;99.90;;;;;;5013995;28;20045;-88
2021/07/04 04:04:06;;;;;;;18.38;5.50;;;16.80;99.90;;;;;;5023169;28;20049;-87
2021/07/04 04:06:33;;;;;;;18.33;5.67;;;16.80;99.90;;;;;;5006360;28;20041;-87
2021/07/04 04:09:00;;;;;;;21.30;5.40;;;16.80;99.90;;;;;;5014308;28;20046;-88
2021/07/04 04:11:27;;;;;;;18.90;5.55;;;16.80;99.90;;;;;;5008418;28;20476;-87
2021/07/04 04:13:55;;;;;;;18.52;5.22;;;16.80;99.90;;;;;;5012029;28;20045;-87
2021/07/04 04:16:22;;;;;;;19.33;5.10;;;16.80;99.90;;;;;;5011741;28;20133;-88
2021/07/04 04:18:49;;;;;;;18.27;5.30;;;16.80;99.90;;;;;;5012811;28;20041;-88
2021/07/04 04:21:17;;;;;;;18.40;5.75;;;16.80;99.90;;;;;;5011029;28;20052;-88
2021/07/04 04:23:44;;;;;;;25.98;5.95;;;16.80;99.90;;;;;;5010870;28;20092;-88
2021/07/04 04:26:12;;;;;;;17.48;5.28;;;16.80;99.90;;;;;;5006433;28;20089;-88
2021/07/04 04:28:40;;;;;;;25.08;5.72;;;16.80;99.90;;;;;;5012555;28;20187;-87
2021/07/04 04:31:07;;;;;;;23.02;5.53;;;16.80;99.90;;;;;;5015595;28;20288;-87
2021/07/04 04:33:34;;;;;;;10.23;4.32;;;16.80;99.90;;;;;;5012542;28;20114;-87
2021/07/04 04:36:02;;;;;;;10.05;3.95;;;16.80;99.90;;;;;;5014587;28;20042;-88
2021/07/04 04:38:30;;;;;;;9.07;3.35;;;16.80;99.90;;;;;;5009427;28;20043;-87
2021/07/04 04:40:57;;;;;;;7.32;2.38;;;16.70;99.90;;;;;;5011648;28;20042;-87
2021/07/04 04:43:25;;;;;;;10.20;2.05;;;16.60;99.90;;;;;;5008909;28;20037;-88
2021/07/04 04:45:52;;;;;;;10.93;2.30;;;16.50;99.90;;;;;;5019218;28;20115;-87
2021/07/04 04:48:20;;;;;;;7.45;2.03;;;16.40;99.90;;;;;;5008995;28;20045;-88
2021/07/04 04:50:47;;;;;;;4.82;1.45;;;16.30;99.90;;;;;;5014331;28;20072;-88
2021/07/04 04:53:16;;;;;;;4.55;1.30;;;16.30;99.90;;;;;;5010658;28;20570;-88
2021/07/04 04:55:43;;;;;;;5.00;1.35;;;16.20;99.90;;;;;;5017068;28;20136;-88
2021/07/04 04:58:10;;;;;;;7.43;1.33;;;16.10;99.90;;;;;;5013778;28;20052;-88
2021/07/04 05:00:37;;;;;;;9.52;1.77;;;16.10;99.90;;;;;;5015349;28;20061;-87
2021/07/04 05:03:08;;;;;;;15.35;2.08;;;16.00;99.90;;;;;;5012555;28;20368;-87
2021/07/04 05:05:35;;;;;;;13.15;1.92;;;15.90;99.90;;;;;;5016140;28;20048;-87
2021/07/04 05:08:02;;;;;;;12.35;1.95;;;15.90;99.90;;;;;;5015825;28;20050;-88
2021/07/04 05:10:30;;;;;;;13.80;2.00;;;15.90;99.90;;;;;;5012291;28;20782;-88
2021/07/04 05:12:57;;;;;;;10.77;1.80;;;15.80;99.90;;;;;;5016473;28;20047;-88
2021/07/04 05:15:25;;;;;;;20.33;2.60;;;15.80;99.90;;;;;;5013123;28;20037;-87
2021/07/04 05:17:52;;;;;;;17.40;2.50;;;15.80;99.90;;;;;;5019620;28;20100;-87
2021/07/04 05:20:20;;;;;;;14.47;2.53;;;15.70;99.90;;;;;;5015549;28;20364;-87
2021/07/04 05:22:47;;;;;;;18.25;2.70;;;15.80;99.90;;;;;;5030017;28;20288;-88
2021/07/04 05:25:15;;;;;;;19.80;2.50;;;15.70;99.90;;;;;;5014483;28;20049;-88
2021/07/04 05:27:42;;;;;;;9.38;2.00;;;15.70;99.90;;;;;;5023875;28;20052;-88
2021/07/04 05:30:10;;;;;;;11.30;1.90;;;15.70;99.90;;;;;;5015931;28;20088;-88
2021/07/04 05:32:38;;;;;;;12.35;2.28;;;15.60;99.90;;;;;;5018491;28;20057;-88
2021/07/04 05:35:07;;;;;;;9.82;1.73;;;15.60;99.90;;;;;;5014007;28;20080;-88
2021/07/04 05:37:35;;;;;;;13.73;2.20;;;15.50;99.90;;;;;;5014311;28;20430;-88
2021/07/04 05:40:14;;;;;;;15.10;2.35;;;15.50;99.90;;;;;;5011342;28;20782;-88
2021/07/04 05:42:44;;;;;;;17.42;2.60;;;15.50;99.90;;;;;;5018678;28;20120;-88
2021/07/04 05:45:16;;;;;;;10.40;1.83;;;15.50;99.90;;;;;;5018514;28;20068;-87
2021/07/04 05:47:44;;;;;;;14.75;2.03;;;15.40;99.90;;;;;;5018562;28;20064;-87
2021/07/04 05:50:12;;;;;;;11.85;2.13;;;15.40;99.90;;;;;;5010797;28;20128;-87
2021/07/04 05:52:39;;;;;;;8.77;1.60;;;15.40;99.90;;;;;;5014855;28;20076;-88
2021/07/04 05:55:08;;;;;;;12.13;1.85;;;15.30;99.90;;;;;;5013283;28;20073;-88
2021/07/04 05:57:35;;;;;;;12.33;1.73;;;15.30;99.90;;;;;;5016541;28;20055;-88
2021/07/04 06:00:06;;;;;;;8.80;1.73;;;15.40;99.90;;;;;;5014891;28;20055;-88
2021/07/04 06:02:34;;;;;;;13.10;2.30;;;15.40;99.90;;;;;;5019831;28;20067;-86
2021/07/04 06:05:01;;;;;;;9.50;1.85;;;15.40;99.90;;;;;;5013784;28;20037;-88
2021/07/04 06:07:29;;;;;;;12.10;2.50;;;15.40;99.90;;;;;;5011606;28;20084;-88
2021/07/04 06:09:57;;;;;;;9.90;1.60;;;15.30;99.90;;;;;;5011263;28;20045;-88
2021/07/04 06:12:25;;;;;;;;;;;15.30;99.90;;;;;;5010647;28;20038;-88
2021/07/04 06:14:52;;;;;;;14.20;2.40;;;15.30;99.90;;;;;;5012398;28;19921;-88
2021/07/04 06:17:20;;;;;;;12.32;1.90;;;15.30;99.90;;;;;;5017751;28;20049;-88
2021/07/04 06:19:47;;;;;;;11.93;1.73;;;15.30;99.90;;;;;;5016753;28;20052;-88
2021/07/04 06:22:15;;;;;;;7.28;1.58;;;15.40;99.90;;;;;;5012328;28;20053;-87
2021/07/04 06:24:42;;;;;;;15.57;2.50;;;15.40;99.90;;;;;;5013334;28;20475;-88
2021/07/04 06:27:10;;;;;;;11.73;1.90;;;15.50;99.90;;;;;;5007462;28;20510;-88
2021/07/04 06:29:37;;;;;;;7.50;1.60;;;15.50;99.90;;;;;;5012394;28;20048;-88
2021/07/04 06:32:05;;;;;;;7.37;1.60;;;15.50;99.90;;;;;;5007671;28;20049;-88
2021/07/04 06:34:36;;;;;;;8.07;1.73;;;15.50;99.90;;;;;;5001815;28;20280;-88
2021/07/04 06:37:05;;;;;;;10.80;2.13;;;15.50;99.90;;;;;;5013991;28;20049;-87
2021/07/04 06:39:32;;;;;;;8.70;1.73;;;15.50;99.90;;;;;;5025431;28;20785;-88
2021/07/04 06:42:00;;;;;;;8.75;1.88;;;15.50;99.90;;;;;;5018330;28;20067;-88
2021/07/04 06:44:28;;;;;;;10.10;1.73;;;15.50;99.90;;;;;;5005374;28;20065;-88
2021/07/04 06:46:56;;;;;;;11.13;1.73;;;15.50;99.90;;;;;;5012590;28;20044;-88
2021/07/04 06:49:23;;;;;;;8.67;1.60;;;15.50;99.90;;;;;;5005217;28;20053;-88
2021/07/04 06:51:51;;;;;;;11.07;2.08;;;15.50;99.90;;;;;;5008015;28;20050;-87
2021/07/04 06:54:19;;;;;;;12.55;1.73;;;15.60;99.90;;;;;;5011237;28;20092;-88
2021/07/04 06:56:47;;;;;;;10.20;1.98;;;15.60;99.90;;;;;;5006804;28;20045;-88
2021/07/04 06:59:14;;;;;;;8.00;1.50;;;15.60;99.90;;;;;;5008001;28;20037;-88
2021/07/04 07:01:42;;;;;;;11.05;1.70;;;15.70;99.90;;;;;;5011811;28;20052;-88
2021/07/04 07:04:13;;;;;;;14.63;2.53;;;15.80;99.90;;;;;;5009541;28;20479;-88
2021/07/04 07:06:41;;;;;;;11.27;1.88;;;15.90;99.90;;;;;;5018382;28;20473;-88
2021/07/04 07:09:10;;;;;;;10.50;1.88;;;16.10;99.90;;;;;;5015477;28;20045;-90
2021/07/04 07:11:38;;;;;;;9.63;1.90;;;16.10;99.90;;;;;;5015783;28;20415;-88
2021/07/04 07:14:07;;;;;;;10.73;1.80;;;16.20;99.90;;;;;;5008437;28;20442;-88
2021/07/04 07:16:35;;;;;;;17.80;2.22;;;16.20;99.90;;;;;;5005291;28;20049;-88
2021/07/04 07:19:04;;;;;;;10.80;2.13;;;16.30;99.90;;;;;;5005367;28;20384;-88
2021/07/04 07:21:32;;;;;;;10.43;2.17;;;16.40;99.90;;;;;;5004265;28;20049;-89
2021/07/04 07:24:01;;;;;;;;;;;16.50;99.90;;;;;;5002352;28;20045;-89
2021/07/04 07:26:29;;;;;;;;;;;16.50;99.90;;;;;;5002346;28;19929;-89
2021/07/04 07:28:59;;;;;;;8.73;1.90;;;16.50;99.90;;;;;;5004974;28;20255;-89
2021/07/04 07:31:31;;;;;;;10.68;2.03;;;16.50;99.90;;;;;;5011033;28;20467;-89
2021/07/04 07:33:59;;;;;;;10.98;2.20;;;16.60;99.90;;;;;;5008068;28;20068;-89
2021/07/04 07:36:28;;;;;;;;;;;16.80;99.90;;;;;;5003143;28;20336;-89
2021/07/04 07:38:57;;;;;;;8.23;1.88;;;17.00;99.90;;;;;;5001740;28;19982;-88
2021/07/04 07:41:25;;;;;;;5.90;1.60;;;17.10;99.90;;;;;;5008318;28;20065;-89
2021/07/04 07:43:54;;;;;;;6.35;1.30;;;17.30;99.90;;;;;;5011181;28;20249;-89
2021/07/04 07:46:22;;;;;;;;;;;17.50;99.90;;;;;;4999208;28;20045;-88
2021/07/04 07:48:50;;;;;;;8.80;1.87;;;17.60;99.90;;;;;;5008826;28;20027;-89
2021/07/04 07:51:19;;;;;;;7.93;1.55;;;17.60;99.90;;;;;;5006501;28;20117;-88
2021/07/04 07:53:47;;;;;;;7.63;1.67;;;17.60;99.90;;;;;;5006240;28;20364;-88
2021/07/04 07:56:15;;;;;;;11.20;1.85;;;17.70;99.90;;;;;;5006222;28;20041;-88
2021/07/04 07:58:44;;;;;;;7.05;1.55;;;17.60;99.90;;;;;;5006240;28;20041;-88
2021/07/04 08:01:15;;;;;;;6.53;1.42;;;17.70;99.90;;;;;;4994480;28;20054;-88
2021/07/04 08:03:43;;;;;;;7.85;1.70;;;17.80;99.90;;;;;;5023966;28;20052;-91
2021/07/04 08:06:12;;;;;;;8.80;1.70;;;17.80;99.90;;;;;;5004330;28;20059;-88
2021/07/04 08:08:41;;;;;;;9.07;1.50;;;17.90;99.90;;;;;;5012370;28;20045;-89
2021/07/04 08:11:10;;;;;;;8.77;1.88;;;17.80;99.90;;;;;;5003039;28;20052;-88
2021/07/04 08:13:37;;;;;;;7.47;1.42;;;17.90;99.90;;;;;;5006755;28;20049;-89
2021/07/04 08:16:07;;;;;;;6.10;1.60;;;18.00;99.90;;;;;;5005332;28;20652;-89
2021/07/04 08:18:36;;;;;;;12.32;2.03;;;18.30;99.90;;;;;;5025037;28;20494;-89
2021/07/04 08:21:04;;;;;;;6.45;1.75;;;18.40;99.90;;;;;;4996356;28;20136;-89
2021/07/04 08:23:32;;;;;;;;;;;18.30;99.90;;;;;;5010357;28;20395;-89
2021/07/04 08:26:01;;;;;;;7.80;1.75;;;18.40;99.90;;;;;;5006757;28;19921;-89
2021/07/04 08:28:30;;;;;;;6.13;1.48;;;18.30;99.90;;;;;;5006870;28;20053;-89
2021/07/04 08:30:59;;;;;;;7.15;1.70;;;18.40;99.90;;;;;;5007157;28;20057;-89
2021/07/04 08:33:28;;;;;;;9.55;1.60;;;18.40;99.90;;;;;;5003757;28;20049;-89
2021/07/04 08:35:57;;;;;;;9.05;2.00;;;18.50;99.90;;;;;;5005735;28;20125;-89
2021/07/04 08:38:26;;;;;;;12.30;2.22;;;18.70;99.90;;;;;;5003074;28;20081;-89
2021/07/04 08:40:54;;;;;;;6.88;1.60;;;18.90;99.90;;;;;;5002219;28;20402;-88
2021/07/04 08:43:34;;;;;;;10.38;2.03;;;19.10;99.90;;;;;;5003486;28;20071;-88
2021/07/04 08:46:06;;;;;;;7.43;1.60;;;19.00;99.90;;;;;;5006675;28;20081;-89
2021/07/04 08:48:35;;;;;;;6.43;1.48;;;18.80;99.90;;;;;;5007762;28;20483;-89
2021/07/04 08:51:05;;;;;;;8.85;1.95;;;18.70;99.90;;;;;;5011366;28;20144;-88
2021/07/04 08:53:33;;;;;;;6.78;1.75;;;18.50;99.90;;;;;;5008714;28;20056;-89
2021/07/04 08:56:02;;;;;;;9.05;1.70;;;18.40;99.90;;;;;;5011874;28;20042;-88
2021/07/04 08:58:30;;;;;;;7.18;1.60;;;18.30;99.90;;;;;;5010844;28;20438;-88
2021/07/04 09:01:20;;;;;;;7.40;1.63;;;18.20;99.90;;;;;;5018361;28;20053;-89
2021/07/04 09:04:15;;;;;;;9.85;1.90;;;18.30;99.90;;;;;;5012994;28;20034;-88
2021/07/04 09:06:53;;;;;;;7.90;1.80;;;18.40;99.90;;;;;;5009847;28;20096;-88
2021/07/04 09:09:29;;;;;;;7.25;1.48;;;18.40;99.90;;;;;;5026951;28;20049;-88
2021/07/04 09:12:07;;;;;;;8.57;1.83;;;18.50;99.90;;;;;;5009942;28;20125;-89
2021/07/04 09:14:35;;;;;;;6.82;1.52;;;18.60;99.90;;;;;;5019063;28;20073;-88
2021/07/04 09:17:34;;;;;;;13.88;1.83;;;18.70;99.90;;;;;;5009770;28;20053;-88
2021/07/04 09:20:16;;;;;;;6.22;1.52;;;18.80;99.90;;;;;;5012885;28;20096;-89
2021/07/04 09:22:51;;;;;;;5.38;1.55;;;18.90;99.90;;;;;;5004213;28;20729;-88
2021/07/04 09:25:22;;;;;;;11.60;2.28;;;19.10;99.90;;;;;;5005508;28;20094;-89
2021/07/04 09:28:18;;;;;;;9.77;1.90;;;19.10;99.90;;;;;;5011066;28;20069;-89
2021/07/04 09:30:58;;;;;;;8.32;2.15;;;18.90;99.90;;;;;;5013797;28;20471;-89
2021/07/04 09:33:35;;;;;;;8.07;2.15;;;19.00;99.90;;;;;;5007683;28;20045;-89
2021/07/04 09:36:08;;;;;;;8.57;1.75;;;19.10;99.90;;;;;;5011829;28;20053;-88
2021/07/04 09:38:43;;;;;;;7.15;1.50;;;19.10;99.90;;;;;;5002537;28;20096;-88
2021/07/04 09:41:15;;;;;;;9.32;2.03;;;19.10;99.90;;;;;;5004356;28;20436;-89
2021/07/04 09:43:43;;;;;;;7.40;1.80;;;19.00;99.90;;;;;;5000843;28;20049;-88
2021/07/04 09:46:15;;;;;;;;;;;19.00;99.90;;;;;;5013996;28;20073;-89
2021/07/04 09:48:48;;;;;;;6.40;1.55;;;19.00;99.90;;;;;;5006637;28;19924;-89
2021/07/04 09:51:25;;;;;;;9.90;2.13;;;19.00;99.90;;;;;;5002243;28;20047;-88
2021/07/04 09:53:59;;;;;;;10.18;2.30;;;19.20;99.90;;;;;;5009845;28;20428;-89
2021/07/04 09:56:28;;;;;;;10.25;2.20;;;19.30;99.90;;;;;;5003589;28;20042;-89
2021/07/04 09:58:57;;;;;;;;;;;19.30;99.90;;;;;;5006568;28;20053;-87
2021/07/04 10:01:33;;;;;;;;;;;19.30;99.90;;;;;;5008667;28;20428;-88
2021/07/04 10:04:04;;;;;;;4.25;1.60;;;19.10;99.90;;;;;;5008718;28;19921;-88
2021/07/04 10:06:46;;;;;;;9.52;1.83;;;19.00;99.90;;;;;;5003019;28;20045;-89
2021/07/04 10:09:15;;;;;;;10.20;2.10;;;19.10;99.90;;;;;;4995222;28;20056;-89
2021/07/04 10:11:43;;;;;;;6.75;1.70;;;19.30;99.90;;;;;;5005069;28;20396;-88
2021/07/04 10:14:11;;;;;;;11.27;2.53;;;19.40;99.90;;;;;;5004426;28;20390;-89
2021/07/04 10:16:45;;;;;;;8.00;2.40;;;19.50;99.90;;;;;;5003332;28;20045;-89
2021/07/04 10:19:18;;;;;;;10.45;2.08;;;19.60;99.90;;;;;;5010062;28;20091;-89
2021/07/04 10:21:55;;;;;;;9.70;2.22;;;19.50;99.90;;;;;;5019148;28;20125;-89
2021/07/04 10:24:23;;;;;;;7.13;1.80;;;19.50;99.90;;;;;;5001720;28;20046;-89
2021/07/04 10:26:52;;;;;;;10.27;2.33;;;19.40;99.90;;;;;;5010112;28;21046;-89
2021/07/04 10:29:23;;;;;;;13.23;2.35;;;19.30;99.90;;;;;;5001986;28;20486;-89
2021/07/04 10:31:51;;;;;;;8.57;2.08;;;19.40;99.90;;;;;;5002387;28;20045;-89
2021/07/04 10:34:25;;;;;;;10.30;2.40;;;19.30;99.90;;;;;;4998373;28;20038;-88
2021/07/04 10:37:01;;;;;;;9.70;2.55;;;19.30;99.90;;;;;;5007457;28;20538;-88
2021/07/04 10:39:34;;;;;;;14.32;2.70;;;19.30;99.90;;;;;;5005077;28;20394;-89
2021/07/04 10:42:10;;;;;;;10.38;2.42;;;19.30;99.90;;;;;;5006840;28;20065;-89
2021/07/04 10:44:49;;;;;;;10.18;2.63;;;19.30;99.90;;;;;;4998432;28;20057;-88
2021/07/04 10:47:32;;;;;;;8.32;2.30;;;19.40;99.90;;;;;;4997010;28;20046;-89
2021/07/04 10:50:06;;;;;;;13.48;2.90;;;19.50;99.90;;;;;;5002641;28;20057;-89
2021/07/04 10:52:34;;;;;;;12.27;2.30;;;19.60;99.90;;;;;;5008645;28;20061;-88
2021/07/04 10:55:04;;;;;;;10.82;2.47;;;19.60;99.90;;;;;;5004398;28;20487;-88
2021/07/04 10:57:52;;;;;;;9.40;2.35;;;19.70;99.90;;;;;;5000010;28;20046;-89
2021/07/04 11:00:23;;;;;;;10.88;2.15;;;19.90;99.90;;;;;;5005717;28;20387;-89
2021/07/04 11:02:59;;;;;;;9.02;2.30;;;20.00;99.90;;;;;;5006283;28;20057;-88
2021/07/04 11:05:40;;;;;;;10.07;2.30;;;20.00;99.90;;;;;;5007925;28;20069;-89
2021/07/04 11:08:23;;;;;;;9.32;2.42;;;19.90;99.90;;;;;;4994538;28;20038;-89
2021/07/04 11:11:07;;;;;;;13.00;2.63;;;19.90;99.90;;;;;;5024226;28;20841;-88
2021/07/04 11:13:41;;;;;;;9.15;2.60;;;19.80;99.90;;;;;;5006486;28;20060;-89
2021/07/04 11:16:13;;;;;;;11.23;2.97;;;20.00;99.90;;;;;;5003188;28;20048;-89
2021/07/04 11:18:52;;;;;;;12.13;2.75;;;20.00;99.90;;;;;;5022609;28;20038;-88
2021/07/04 11:21:40;;;;;;;6.93;2.30;;;19.90;99.90;;;;;;5001822;28;20391;-88
2021/07/04 11:24:20;;;;;;;10.93;2.60;;;19.90;99.90;;;;;;5002728;28;20323;-89
2021/07/04 11:27:21;;;;;;;8.75;2.30;;;19.90;99.90;;;;;;5002961;28;20132;-89
2021/07/04 11:30:17;;;;;;;9.77;2.20;;;19.90;99.90;;;;;;5001726;28;20054;-88
2021/07/04 11:32:45;;;;;;;11.85;2.25;;;20.00;99.90;;;;;;5023918;28;20713;-88
2021/07/04 11:35:13;;;;;;;8.63;2.40;;;20.00;99.90;;;;;;5010495;28;20379;-88
2021/07/04 11:37:42;;;;;;;9.32;2.53;;;20.00;99.90;;;;;;5010587;28;20049;-88
2021/07/04 11:40:10;;;;;;;7.40;2.50;;;20.00;99.90;;;;;;5000960;28;20403;-88
2021/07/04 11:42:37;;;;;;;8.63;2.63;;;20.10;99.90;;;;;;5009932;28;20041;-87
2021/07/04 11:45:17;;;;;;;11.23;2.88;;;20.00;99.90;;;;;;5007746;28;20632;-89
2021/07/04 11:47:56;;;;;;;8.57;2.83;;;20.20;99.90;;;;;;5007960;28;20045;-88
2021/07/04 11:50:24;;;;;;;11.25;3.17;;;20.40;99.90;;;;;;5001373;28;20100;-88
2021/07/04 11:53:05;;;;;;;9.20;2.50;;;20.50;99.90;;;;;;5009478;28;20550;-89
2021/07/04 11:55:33;;;;;;;7.28;2.78;;;20.50;99.90;;;;;;4995724;28;20589;-88
2021/07/04 11:58:01;;;;;;;9.98;2.95;;;20.50;99.90;;;;;;5004650;28;20042;-88
2021/07/04 12:00:32;;;;;;;12.85;2.67;;;20.60;99.90;;;;;;5003287;28;20049;-88
2021/07/04 12:03:00;;;;;;;11.35;2.75;;;20.60;99.90;;;;;;5003592;28;20060;-88
2021/07/04 12:05:31;;;;;;;8.07;2.40;;;20.60;99.90;;;;;;5004151;28;20043;-89
2021/07/04 12:07:59;;;;;;;11.45;3.05;;;20.50;99.90;;;;;;5004598;28;20046;-89
2021/07/04 12:10:27;;;;;;;8.43;2.60;;;20.30;99.90;;;;;;5004753;28;20049;-88
2021/07/04 12:12:54;;;;;;;9.95;2.70;;;20.30;99.90;;;;;;5002249;28;20041;-88
2021/07/04 12:15:22;;;;;;;9.23;2.70;;;20.20;99.90;;;;;;4998749;28;20049;-88
2021/07/04 12:17:49;;;;;;;8.48;2.70;;;20.30;99.90;;;;;;5008846;28;20046;-87
2021/07/04 12:20:37;;;;;;;12.02;3.25;;;20.30;99.90;;;;;;5006452;28;20041;-88
2021/07/04 12:23:07;;;;;;;10.15;2.85;;;20.50;99.90;;;;;;5008914;28;20037;-88
2021/07/04 12:25:41;;;;;;;12.15;3.35;;;20.50;99.90;;;;;;5004374;28;20041;-89
2021/07/04 12:28:13;;;;;;;9.05;2.95;;;20.60;99.90;;;;;;5009139;28;20046;-88
2021/07/04 12:30:49;;;;;;;13.30;3.00;;;20.60;99.90;;;;;;5002807;28;20041;-88
2021/07/04 12:33:25;;;;;;;7.97;2.90;;;20.60;99.90;;;;;;4999993;28;20057;-88
2021/07/04 12:36:00;;;;;;;17.45;3.83;;;20.70;99.90;;;;;;5024455;28;20407;-89
2021/07/04 12:38:35;;;;;;;9.43;2.90;;;20.60;99.90;;;;;;5009468;28;20048;-88
2021/07/04 12:41:02;;;;;;;8.25;3.00;;;20.70;99.90;;;;;;5007829;28;20041;-88
2021/07/04 12:43:33;;;;;;;10.00;2.50;;;20.80;99.90;;;;;;5003229;28;20057;-89
2021/07/04 12:46:02;;;;;;;12.35;3.50;;;20.90;99.90;;;;;;5006571;28;20049;-88
2021/07/04 12:48:31;;;;;;;;;;;20.80;99.90;;;;;;5002838;28;20069;-89
2021/07/04 12:51:05;;;;;;;10.10;3.05;;;20.60;99.90;;;;;;5019388;28;19929;-88
2021/07/04 12:53:42;;;;;;;9.32;2.88;;;20.70;99.90;;;;;;5006799;28;20403;-87
2021/07/04 12:56:27;;;;;;;6.90;2.40;;;20.60;99.90;;;;;;5001628;28;20043;-89
2021/07/04 12:58:56;;;;;;;16.70;3.15;;;20.50;99.90;;;;;;5005592;28;20069;-88